Tiempo atmosférico en la estación meteorológica de Alburquerque, Badajoz (283 m.)

Fecha
DESCASC
Temp. máxima en grados centígrados (hora)
DESCASC
Temp. mínima en grados centígrados (hora)
DESCASC
Temp. media en grados centígrados
DESCASC
Racha de viento máxima en m/sg (hora)
DESCASC
Velocidad máxima media en intervalos de 10 minutos(hora)
DESCASC
Precipitaciones diarias en mm
DESCASC
Precipitaciones de 00:00 a 06:00 en mm
DESCASC
Precipitaciones de 06:00 a 12:00 en mm
DESCASC
Precipitaciones de 12:00 a 18:00 en mm
DESCASC
Precipitaciones de 18:00 a 24:00 en mm
DESCASC
17-08-2017 38.8 (17:30) 18.1 (08:10) 28.4 9.17 (19:20) 4.17 (20:40) 0 0 0 0 0
16-08-2017 36.7 (18:50) 14.5 (07:30) 25.6 8.33 (20:40) 3.61 (18:00) 0 0 0 0 0
15-08-2017 35.4 (16:20) 15.5 (00:00) 25.5 9.44 (17:10) 5.28 (17:10) 0 0 0 0 0
14-08-2017 37 (18:20) 18.9 (08:20) 27.9 8.33 (19:30) 3.89 (20:40) 0 0 0 0 0
13-08-2017 37.7 (18:10) 16 (00:00) 26.9 6.11 (13:30) 3.06 (18:40) 0 0 0 0 0
12-08-2017 37.3 (17:40) 15.5 (00:00) 26.4 12.22 (19:30) 3.89 (11:20) 0 0 0 0 0
11-08-2017 34.8 (17:40) 14.5 (00:00) 24.6 7.5 (13:20) 3.89 (10:50) 0 0 0 0 0
10-08-2017 31.7 (18:10) 18.1 (00:00) 24.9 12.22 (03:10) 6.94 (05:30) 0 0 0 0 0
09-08-2017 31.2 (18:20) 13.8 (00:00) 22.5 9.72 (16:20) 5 (17:00) 0 0 0 0 0
08-08-2017 31.5 (18:10) 13.2 (00:00) 22.3 9.17 (14:10) 5 (18:20) 0 0 0 0 0
07-08-2017 34.7 (16:40) 14.3 (00:00) 24.5 10.83 (14:10) 5.83 (15:00) 0 0 0 0 0
06-08-2017 36.7 (18:40) 16.1 (00:00) 26.4 8.61 (18:50) 4.44 (19:00) 0 0 0 0 0
05-08-2017 38.6 (16:30) 19.3 (00:00) 28.9 9.44 (15:10) 5 (16:40) 0 0 0 0 0
04-08-2017 41.1 (18:10) 24.5 (00:00) 32.8 7.78 (20:50) 4.17 (20:30) 0 0 0 0 0
03-08-2017 38.1 (18:10) 13.6 (00:00) 25.8 8.89 (20:40) 4.72 (21:20) 0 0 0 0 0
02-08-2017 35.3 (19:00) 12.2 (00:00) 23.7 6.94 (17:50) 3.61 (20:30) 0 0 0 0 0
01-08-2017 32.2 (17:40) 13.2 (00:00) 22.7 8.89 (20:10) 4.72 (20:20) 0 0 0 0 0
31-07-2017 32.6 (17:10) 12.5 (00:00) 22.5 11.11 (18:10) 6.11 (18:10) 0 0 0 0 0
30-07-2017 36.3 (17:40) 17.9 (00:00) 27.1 10.56 (16:10) 5 (18:40) 0 0 0 0 0
29-07-2017 38.4 (18:10) 18.5 (00:00) 28.5 9.17 (17:10) 4.17 (16:50) 0 0 0 0 0
28-07-2017 38.9 (17:50) 16 (00:00) 27.5 8.89 (17:10) 5 (20:40) 0 0 0 0 0
27-07-2017 38.2 (18:30) 19.7 (00:00) 29 9.72 (19:30) 4.44 (17:40) 0 0 0 0 0
26-07-2017 38.8 (18:00) 23.1 (00:00) 30.9 9.17 (00:40) 5 (00:10) 0 0 0 0 0
25-07-2017 37.2 (17:30) 22.7 (00:00) 30 9.44 (13:20) 4.72 (23:20) 0 0 0 0 0
24-07-2017 36.3 (18:30) 21.4 (00:00) 28.8 10 (16:00) 5 (19:00) 0 0 0 0 0
23-07-2017 36 (19:10) 15.5 (00:00) 25.8 10 (16:50) 4.44 (17:20) 0 0 0 0 0
22-07-2017 33.6 (18:30) 13.2 (00:00) 23.4 7.5 (19:10) 3.89 (21:10) 0 0 0 0 0
21-07-2017 31.3 (18:10) 11.5 (00:00) 21.4 10.83 (17:10) 5.28 (20:30) 0 0 0 0 0
20-07-2017 31.1 (17:10) 13.3 (00:00) 22.2 9.17 (18:10) 4.72 (17:50) 0 0 0 0 0
19-07-2017 30.6 (16:50) 17.5 (00:00) 24.1 9.17 (15:10) 5.56 (16:30) 0 0 0 0 0

Gráficas

Temp. máximas Temp. mínimas Temp. medias Precipitaciones Rachas de viento máximas Velocidades máximas media en intervalos de 10 minutos

Datos horarios

Fecha y hora oficial Temperatura (ºC) Velocidad del viento (km/h) Dirección del viento Racha (km/h) Dirección de racha Precipitación (mm) Presión (hPa) Tendencia (hPa) Humedad (%)
2017-08-17 23:00:00 30.7 6 Noroeste 15 Oeste 0 -- -- 38
2017-08-17 22:00:00 32.9 7 Noroeste 26 Oeste 0 -- -- 32
2017-08-17 21:00:00 35.5 13 Oeste 27 Oeste 0 -- -- 29
2017-08-17 20:00:00 38 14 Oeste 33 Sudoeste 0 -- -- 24
2017-08-17 19:00:00 38.3 11 Sudoeste 24 Oeste 0 -- -- 24
2017-08-17 18:00:00 38.7 10 Sudoeste 19 Oeste 0 -- -- 23
2017-08-17 17:00:00 38.4 6 Norte 25 Oeste 0 -- -- 22
2017-08-17 16:00:00 38.3 9 Oeste 22 Noroeste 0 -- -- 23
2017-08-17 15:00:00 37.2 8 Oeste 21 Norte 0 -- -- 24
2017-08-17 14:00:00 35.7 8 Noroeste 24 Noroeste 0 -- -- 26
2017-08-17 13:00:00 34.3 6 Noroeste 19 Norte 0 -- -- 28
2017-08-17 12:00:00 32.7 6 Nordeste 17 Noroeste 0 -- -- 32
2017-08-17 11:00:00 29.4 8 Norte 16 Norte 0 -- -- 39
2017-08-17 10:00:00 24.7 6 Noroeste 10 Noroeste 0 -- -- 50
2017-08-17 09:00:00 19.9 0 Calma 4 Sudoeste 0 -- -- 60
2017-08-17 08:00:00 18.2 0 Calma -- -- 0 -- -- 60
2017-08-17 07:00:00 18.9 0 Calma -- -- 0 -- -- 61
2017-08-17 06:00:00 19.4 0 Calma 2 Nordeste 0 -- -- 57
2017-08-17 05:00:00 21.2 0 Calma 5 Sur 0 -- -- 51
2017-08-17 04:00:00 24 0 Calma 17 Norte 0 -- -- 45
2017-08-17 03:00:00 25.6 11 Norte 20 Norte 0 -- -- 43
2017-08-17 02:00:00 25.1 6 Norte 13 Noroeste 0 -- -- 44
2017-08-17 01:00:00 25.4 6 Noroeste 13 Noroeste 0 -- -- 42
2017-08-17 00:00:00 24.8 3 Oeste 6 Oeste 0 -- -- 38
2017-08-16 23:00:00 27.7 5 Oeste 13 Oeste 0 -- -- 34
2017-08-16 22:00:00 29.9 5 Oeste 18 Noroeste 0 -- -- 31
2017-08-16 21:00:00 32.3 12 Noroeste 30 Noroeste 0 -- -- 28
2017-08-16 20:00:00 36.2 6 Norte 23 Noroeste 0 -- -- 19
2017-08-16 19:00:00 36.6 7 Noroeste 20 Norte 0 -- -- 18
2017-08-16 18:00:00 36.1 13 Norte 26 Norte 0 -- -- 17
2017-08-16 17:00:00 35.8 9 Nordeste 23 Nordeste 0 -- -- 16
2017-08-16 16:00:00 35.2 13 Norte 28 Norte 0 -- -- 16
2017-08-16 15:00:00 34.1 11 Noroeste 26 Norte 0 -- -- 17
2017-08-16 14:00:00 32.2 10 Oeste 21 Oeste 0 -- -- 21
2017-08-16 13:00:00 30.6 5 Nordeste 18 Noroeste 0 -- -- 25
2017-08-16 12:00:00 28.6 6 Norte 18 Norte 0 -- -- 29
2017-08-16 11:00:00 25.1 6 Noroeste 12 Noroeste 0 -- -- 37
2017-08-16 10:00:00 20.5 6 Noroeste 9 Norte 0 -- -- 55
2017-08-16 09:00:00 16.8 0 Calma 5 Noroeste 0 -- -- 70
2017-08-16 08:00:00 14.5 0 Calma 5 Sudeste 0 -- -- 72
2017-08-16 07:00:00 14.8 2 Este 4 Sudeste 0 -- -- 72
2017-08-16 06:00:00 15 3 Sudeste 4 Este 0 -- -- 69
2017-08-16 05:00:00 15.7 0 Calma 3 Nordeste 0 -- -- 62
2017-08-16 04:00:00 16.5 0 Calma 4 Noroeste 0 -- -- 61
2017-08-16 03:00:00 18.1 0 Calma 7 Noroeste 0 -- -- 56
2017-08-16 02:00:00 19.1 5 Oeste 8 Oeste 0 -- -- 55
2017-08-16 01:00:00 21.4 2 Noroeste 10 Noroeste 0 -- -- 48
2017-08-16 00:00:00 25 6 Noroeste 15 Noroeste 0 -- -- 41
2017-08-15 23:00:00 26.7 6 Noroeste 15 Norte 0 -- -- 38
2017-08-15 22:00:00 28.5 6 Noroeste 19 Oeste 0 -- -- 31
2017-08-15 21:00:00 30.8 12 Noroeste 31 Oeste 0 -- -- 23
2017-08-15 20:00:00 32.9 18 Noroeste 32 Oeste 0 -- -- 21
2017-08-15 19:00:00 34.2 17 Oeste 32 Oeste 0 -- -- 20
2017-08-15 18:00:00 35 17 Oeste 34 Oeste 0 -- -- 21
2017-08-15 17:00:00 35.3 17 Oeste 31 Noroeste 0 -- -- 22
2017-08-15 16:00:00 35 18 Oeste 30 Noroeste 0 -- -- 24
2017-08-15 15:00:00 33.3 10 Oeste 26 Oeste 0 -- -- 26
2017-08-15 14:00:00 31.1 10 Oeste 21 Oeste 0 -- -- 33
2017-08-15 13:00:00 27.7 7 Oeste 13 Oeste 0 -- -- 44
2017-08-15 12:00:00 24.6 4 Sudoeste 13 Sudoeste 0 -- -- 54
2017-08-15 11:00:00 22.6 7 Sur 11 Sur 0 -- -- 61
2017-08-15 10:00:00 20.2 4 Sur 8 Sur 0 -- -- 69
2017-08-15 09:00:00 17.2 0 Calma -- -- 0 -- -- 78
2017-08-15 08:00:00 15.5 0 Calma 3 Sudeste 0 -- -- 77
2017-08-15 07:00:00 16.5 3 Sudeste 5 Sudeste 0 -- -- 74
2017-08-15 06:00:00 17.6 4 Sudeste 6 Sudeste 0 -- -- 72
2017-08-15 05:00:00 18.2 0 Calma 6 Sur 0 -- -- 68
2017-08-15 04:00:00 19.1 4 Sudeste 5 Este -- -- -- 61
2017-08-15 03:00:00 19.9 0 Calma 3 Sur 0 -- -- 58
2017-08-15 02:00:00 21.3 0 Calma 5 Noroeste 0 -- -- 51
2017-08-15 01:00:00 22.8 4 Oeste 8 Oeste 0 -- -- 45
2017-08-15 00:00:00 25.3 4 Oeste 7 Oeste 0 -- -- 36
2017-08-14 23:00:00 28.3 4 Noroeste 13 Noroeste 0 -- -- 29
2017-08-14 22:00:00 30.7 8 Noroeste 22 Noroeste 0 -- -- 29
2017-08-14 21:00:00 33.4 10 Noroeste 27 Noroeste 0 -- -- 26
2017-08-14 20:00:00 35.8 12 Oeste 30 Oeste 0 -- -- 22
2017-08-14 19:00:00 36.6 11 Oeste 23 Noroeste 0 -- -- 22
2017-08-14 18:00:00 36.9 10 Oeste 26 Oeste 0 -- -- 22
2017-08-14 17:00:00 36.6 8 Sudoeste 20 Sudoeste 0 -- -- 22
2017-08-14 16:00:00 35.7 12 Sudoeste 21 Oeste 0 -- -- 23
2017-08-14 15:00:00 34.4 9 Oeste 23 Oeste 0 -- -- 25
2017-08-14 14:00:00 32.9 8 Sudoeste 21 Sudoeste 0 -- -- 30
2017-08-14 13:00:00 31.2 9 Sur 18 Sur 0 -- -- 32
2017-08-14 12:00:00 28.8 5 Sur 16 Sur 0 -- -- 35
2017-08-14 11:00:00 26.2 9 Sudoeste 16 Sudoeste 0 -- -- 40
2017-08-14 10:00:00 23.5 2 Este 5 Sudeste 0 -- -- 46
2017-08-14 09:00:00 20.4 0 Calma 0 Calma 0 -- -- 52
2017-08-14 08:00:00 19.1 0 Calma 3 Sudoeste 0 -- -- 50
2017-08-14 07:00:00 19.9 3 Sudoeste 7 Sudeste 0 -- -- 47
2017-08-14 06:00:00 19.2 0 Calma -- -- 0 -- -- 48
2017-08-14 05:00:00 19.8 0 Calma 0 Calma 0 -- -- 47
2017-08-14 04:00:00 21.3 0 Calma 5 Nordeste 0 -- -- 43
2017-08-14 03:00:00 23.7 3 Nordeste 13 Sudoeste 0 -- -- 39
2017-08-14 02:00:00 24.4 2 Sudoeste 7 Sudoeste 0 -- -- 36
2017-08-14 01:00:00 26.5 5 Noroeste 12 Noroeste 0 -- -- 34
2017-08-14 00:00:00 26.5 3 Norte 11 Oeste 0 -- -- 30
2017-08-13 23:00:00 28.2 6 Oeste 15 Noroeste 0 -- -- 27
2017-08-13 22:00:00 29.1 0 Calma -- -- 0 -- -- 24
2017-08-13 21:00:00 35 0 Calma 9 Oeste 0 -- -- 20
2017-08-13 20:00:00 36.6 6 Sur 13 Sur 0 -- -- 19
2017-08-13 19:00:00 37.6 6 Oeste 19 Sur 0 -- -- 18
2017-08-13 18:00:00 37.6 9 Sur 21 Sudeste 0 -- -- 18
2017-08-13 17:00:00 37.6 8 Oeste 20 Oeste 0 -- -- 18
2017-08-13 16:00:00 37 7 Sur 17 Sudoeste 0 -- -- 18
2017-08-13 15:00:00 35.6 5 Nordeste 18 Sur 0 -- -- 20
2017-08-13 14:00:00 34.2 9 Sur 22 Sur 0 -- -- 23
2017-08-13 13:00:00 32.1 8 Sur 18 Sudeste 0 -- -- 27
2017-08-13 12:00:00 29.9 8 Sudeste 15 Sur 0 -- -- 29
2017-08-13 11:00:00 27.1 5 Sudoeste 12 Sudoeste 0 -- -- 34
2017-08-13 10:00:00 24.7 5 Sudeste 10 Sudeste 0 -- -- 38
2017-08-13 09:00:00 21.3 5 Sudeste 12 Sudeste 0 -- -- 37
2017-08-13 08:00:00 17.1 4 Este 13 Sudeste 0 -- -- 47
2017-08-13 07:00:00 16.3 3 Sudeste 4 Sudeste 0 -- -- 40
2017-08-13 06:00:00 17.2 0 Calma 6 Sudeste 0 -- -- 36
2017-08-13 05:00:00 18.5 4 Sudeste 6 Sudeste 0 -- -- 35
2017-08-13 04:00:00 20 3 Oeste 8 Nordeste 0 -- -- 32
2017-08-13 03:00:00 21 5 Nordeste 8 Nordeste 0 -- -- 32
2017-08-13 02:00:00 22.1 4 Sudeste 9 Noroeste 0 -- -- 29
2017-08-13 01:00:00 24.3 0 Calma 7 Oeste 0 -- -- 26
2017-08-13 00:00:00 28.5 6 Noroeste 11 Este 0 -- -- 22
2017-08-12 23:00:00 30.8 7 Nordeste 14 Este 0 -- -- 20
2017-08-12 22:00:00 31.8 7 Nordeste 13 Nordeste 0 -- -- 20
2017-08-12 21:00:00 34.5 7 Nordeste 19 Nordeste 0 -- -- 18
2017-08-12 20:00:00 36.8 8 Noroeste 44 Norte 0 -- -- 16
2017-08-12 19:00:00 37 9 Sudeste 18 Este 0 -- -- 16
2017-08-12 18:00:00 37 7 Sudeste 23 Sur 0 -- -- 16
2017-08-12 17:00:00 36.7 7 Este 23 Sudeste 0 -- -- 17
2017-08-12 16:00:00 36.5 9 Sudeste 23 Este 0 -- -- 17
2017-08-12 15:00:00 35.8 5 Este 25 Sudeste 0 -- -- 18
2017-08-12 14:00:00 34.6 10 Este 22 Este 0 -- -- 19
2017-08-12 13:00:00 33.4 10 Este 26 Sudeste 0 -- -- 20
2017-08-12 12:00:00 31.5 11 Este 25 Sudeste 0 -- -- 20
2017-08-12 11:00:00 29.1 10 Este 19 Este 0 -- -- 20
2017-08-12 10:00:00 23.6 2 Sudoeste 5 Sur 0 -- -- 28
2017-08-12 09:00:00 18.6 0 Calma 4 Nordeste 0 -- -- 34
2017-08-12 08:00:00 15.5 2 Este 3 Este 0 -- -- 36
2017-08-12 07:00:00 16.4 2 Este 6 Sudeste 0 -- -- 34
2017-08-12 06:00:00 17.1 0 Calma -- -- 0 -- -- 31
2017-08-12 05:00:00 18.9 0 Calma 5 Nordeste 0 -- -- 29
2017-08-12 04:00:00 21.1 6 Noroeste 10 Noroeste 0 -- -- 26
2017-08-12 03:00:00 23.8 6 Oeste 18 Nordeste 0 -- -- 23
2017-08-12 02:00:00 23.9 10 Nordeste 20 Nordeste 0 -- -- 23
2017-08-12 01:00:00 21.7 4 Oeste 9 Sudoeste 0 -- -- 27
2017-08-12 00:00:00 23.1 0 Calma 6 Nordeste 0 -- -- 24
2017-08-11 23:00:00 25.1 5 Nordeste 9 Nordeste 0 -- -- 24
2017-08-11 22:00:00 27.5 6 Nordeste 13 Norte 0 -- -- 20
2017-08-11 21:00:00 32 10 Nordeste 19 Nordeste 0 -- -- 16
2017-08-11 20:00:00 33.6 13 Norte 22 Nordeste 0 -- -- 15
2017-08-11 19:00:00 34.5 10 Norte 27 Norte 0 -- -- 16
2017-08-11 18:00:00 34.5 10 Nordeste 24 Nordeste 0 -- -- 17
2017-08-11 17:00:00 34.4 10 Norte 21 Norte 0 -- -- 18
2017-08-11 16:00:00 33.9 7 Este 25 Norte 0 -- -- 19
2017-08-11 15:00:00 33.2 9 Nordeste 23 Nordeste 0 -- -- 20
2017-08-11 14:00:00 32 9 Este 27 Nordeste 0 -- -- 22
2017-08-11 13:00:00 31.3 10 Este 22 Nordeste 0 -- -- 22
2017-08-11 12:00:00 29.2 9 Este 21 Este 0 -- -- 25
2017-08-11 11:00:00 27.5 13 Este 24 Sudeste 0 -- -- 26
2017-08-11 10:00:00 24.3 8 Este 18 Este 0 -- -- 30
2017-08-11 09:00:00 18.2 3 Oeste 6 Oeste 0 -- -- 43
2017-08-11 08:00:00 14.6 2 Sudeste 5 Este 0 -- -- 46
2017-08-11 07:00:00 14.8 2 Este 5 Sudeste 0 -- -- 45
2017-08-11 06:00:00 15.6 0 Calma 5 Nordeste 0 -- -- 43
2017-08-11 05:00:00 16.9 0 Calma 4 Sur 0 -- -- 37
2017-08-11 04:00:00 17.4 0 Calma 8 Noroeste 0 -- -- 36
2017-08-11 03:00:00 18.7 3 Noroeste 12 Noroeste 0 -- -- 31
2017-08-11 02:00:00 19 4 Oeste 10 Oeste 0 -- -- 31
2017-08-11 01:00:00 20 4 Sur 8 Sur 0 -- -- 24
2017-08-11 00:00:00 23.3 3 Oeste 10 Este 0 -- -- 21
2017-08-10 23:00:00 25.1 5 Nordeste 10 Nordeste 0 -- -- 19
2017-08-10 22:00:00 26.4 6 Nordeste 16 Nordeste 0 -- -- 17
2017-08-10 21:00:00 29.6 10 Nordeste 25 Nordeste 0 -- -- 15
2017-08-10 20:00:00 31.1 11 Nordeste 27 Nordeste 0 -- -- 14
2017-08-10 19:00:00 31.5 10 Nordeste 25 Este 0 -- -- 14
2017-08-10 18:00:00 31.5 12 Nordeste 27 Nordeste 0 -- -- 14
2017-08-10 17:00:00 31.3 13 Nordeste 31 Este 0 -- -- 15
2017-08-10 16:00:00 30.7 14 Nordeste 29 Este 0 -- -- 18
2017-08-10 15:00:00 29.6 14 Nordeste 33 Nordeste 0 -- -- 18
2017-08-10 14:00:00 28.1 15 Nordeste 32 Nordeste 0 -- -- 21
2017-08-10 13:00:00 26.5 14 Nordeste 28 Nordeste 0 -- -- 25
2017-08-10 12:00:00 24.6 19 Nordeste 31 Nordeste 0 -- -- 27
2017-08-10 11:00:00 22.9 17 Nordeste 34 Nordeste 0 -- -- 30
2017-08-10 10:00:00 20.9 13 Nordeste 37 Nordeste 0 -- -- 36
2017-08-10 09:00:00 19 16 Nordeste 30 Nordeste 0 -- -- 41
2017-08-10 08:00:00 18.2 9 Nordeste 41 Nordeste 0 -- -- 43
2017-08-10 07:00:00 18.4 18 Nordeste 41 Nordeste 0 -- -- 43
2017-08-10 06:00:00 18.8 22 Nordeste 41 Nordeste 0 -- -- 41
2017-08-10 05:00:00 19.7 21 Nordeste 39 Nordeste 0 -- -- 39
2017-08-10 04:00:00 20.5 21 Nordeste 44 Nordeste 0 -- -- 36
2017-08-10 03:00:00 21.5 22 Nordeste 40 Nordeste 0 -- -- 32
2017-08-10 02:00:00 22.3 19 Norte 31 Norte 0 -- -- 28
2017-08-10 01:00:00 23.1 11 Nordeste 31 Norte 0 -- -- 26
2017-08-10 00:00:00 24 11 Nordeste 32 Nordeste 0 -- -- 26
2017-08-09 23:00:00 25.1 13 Nordeste 27 Nordeste 0 -- -- 26
2017-08-09 22:00:00 26.4 12 Nordeste 26 Nordeste 0 -- -- 25
2017-08-09 21:00:00 28.3 14 Norte 31 Norte 0 -- -- 22
2017-08-09 20:00:00 29.9 18 Norte 32 Norte 0 -- -- 21
2017-08-09 19:00:00 30.9 11 Norte 30 Norte 0 -- -- 22
2017-08-09 18:00:00 31 13 Norte 29 Noroeste 0 -- -- 24
2017-08-09 17:00:00 30.7 18 Norte 35 Noroeste 0 -- -- 24
2017-08-09 16:00:00 29.9 13 Norte 27 Noroeste 0 -- -- 23
2017-08-09 15:00:00 28.9 17 Norte 33 Norte 0 -- -- 23
2017-08-09 14:00:00 27.9 16 Norte 29 Norte 0 -- -- 23
2017-08-09 13:00:00 26.5 14 Norte 29 Noroeste 0 -- -- 28
2017-08-09 12:00:00 24.7 8 Noroeste 24 Norte 0 -- -- 35
2017-08-09 11:00:00 22.6 12 Norte 24 Norte 0 -- -- 41
2017-08-09 10:00:00 20.4 9 Norte 22 Noroeste 0 -- -- 48
2017-08-09 09:00:00 17.1 6 Noroeste 12 Oeste 0 -- -- 59
2017-08-09 08:00:00 13.8 3 Sudeste 5 Sudeste 0 -- -- 61
2017-08-09 07:00:00 14.9 0 Calma 5 Sudeste 0 -- -- 61
2017-08-09 06:00:00 16.6 2 Sur 10 Noroeste 0 -- -- 58
2017-08-09 05:00:00 18.7 5 Noroeste 19 Noroeste 0 -- -- 53
2017-08-09 04:00:00 18.5 7 Norte 17 Noroeste 0 -- -- 56
2017-08-09 03:00:00 17.6 0 Calma 7 Noroeste 0 -- -- 55
2017-08-09 02:00:00 19.5 4 Noroeste 16 Noroeste 0 -- -- 52
2017-08-09 01:00:00 21.1 9 Noroeste 21 Noroeste 0 -- -- 49
2017-08-09 00:00:00 22.1 4 Oeste 10 Oeste 0 -- -- 45
2017-08-08 23:00:00 23.7 5 Noroeste 15 Noroeste 0 -- -- 42
2017-08-08 22:00:00 26.1 10 Noroeste 26 Oeste 0 -- -- 39
2017-08-08 21:00:00 29.6 8 Norte 22 Norte 0 -- -- 22
2017-08-08 20:00:00 30.6 15 Norte 32 Norte 0 -- -- 20
2017-08-08 19:00:00 31.4 12 Noroeste 33 Noroeste 0 -- -- 20
2017-08-08 18:00:00 31.4 12 Norte 29 Norte 0 -- -- 20
2017-08-08 17:00:00 30.9 13 Noroeste 32 Norte 0 -- -- 19
2017-08-08 16:00:00 30.6 11 Noroeste 32 Norte 0 -- -- 20
2017-08-08 15:00:00 29.7 14 Noroeste 33 Noroeste 0 -- -- 18
2017-08-08 14:00:00 27.9 16 Norte 30 Noroeste 0 -- -- 23
2017-08-08 13:00:00 26.5 15 Norte 30 Norte 0 -- -- 28
2017-08-08 12:00:00 23.9 13 Norte 26 Noroeste 0 -- -- 39
2017-08-08 11:00:00 21.7 13 Norte 27 Norte 0 -- -- 48
2017-08-08 10:00:00 19.9 14 Norte 25 Noroeste 0 -- -- 56
2017-08-08 09:00:00 16.3 4 Noroeste 10 Oeste 0 -- -- 72
2017-08-08 08:00:00 13.3 0 Calma 5 Noroeste 0 -- -- 70
2017-08-08 07:00:00 13.4 3 Sudeste 6 Nordeste 0 -- -- 67
2017-08-08 06:00:00 14.4 0 Calma 5 Oeste 0 -- -- 66
2017-08-08 05:00:00 15.8 3 Noroeste 6 Noroeste 0 -- -- 61
2017-08-08 04:00:00 17.5 2 Noroeste 19 Noroeste 0 -- -- 57
2017-08-08 03:00:00 17.5 8 Norte 19 Noroeste 0 -- -- 59
2017-08-08 02:00:00 18 2 Este 9 Norte 0 -- -- 57
2017-08-08 01:00:00 19.4 3 Norte 14 Oeste 0 -- -- 50
2017-08-08 00:00:00 21.3 6 Noroeste 14 Oeste 0 -- -- 47
2017-08-07 23:00:00 23.3 8 Oeste 22 Norte 0 -- -- 43
2017-08-07 22:00:00 25.2 10 Oeste 29 Oeste 0 -- -- 38
2017-08-07 21:00:00 27.6 16 Noroeste 28 Oeste 0 -- -- 35
2017-08-07 20:00:00 29.6 16 Oeste 32 Oeste 0 -- -- 23
2017-08-07 19:00:00 32.7 17 Oeste 37 Oeste 0 -- -- 18
2017-08-07 18:00:00 33.8 17 Oeste 36 Noroeste 0 -- -- 19
2017-08-07 17:00:00 34.2 17 Noroeste 36 Oeste 0 -- -- 16
2017-08-07 16:00:00 34.4 16 Oeste 33 Noroeste 0 -- -- 16
2017-08-07 15:00:00 34.2 21 Oeste 39 Oeste 0 -- -- 17
2017-08-07 14:00:00 32.2 10 Sudoeste 21 Sudoeste 0 -- -- 24
2017-08-07 13:00:00 29.4 8 Sudoeste 16 Oeste 0 -- -- 25
2017-08-07 12:00:00 26.2 4 Sur 13 Sur 0 -- -- 36
2017-08-07 11:00:00 22.8 4 Sudoeste 10 Sudoeste 0 -- -- 52
2017-08-07 10:00:00 20.1 4 Sudoeste 8 Este 0 -- -- 65
2017-08-07 09:00:00 16.9 0 Calma 5 Sudoeste 0 -- -- 76
2017-08-07 08:00:00 14.3 0 Calma 4 Noroeste 0 -- -- 78
2017-08-07 07:00:00 14.7 0 Calma 4 Noroeste 0 -- -- 75
2017-08-07 06:00:00 15.6 0 Calma 3 Sudoeste 0 -- -- 70
2017-08-07 05:00:00 16.8 0 Calma 4 Noroeste 0 -- -- 66
2017-08-07 04:00:00 18.5 2 Noroeste 8 Noroeste 0 -- -- 61
2017-08-07 03:00:00 19.3 0 Calma 8 Oeste 0 -- -- 56
2017-08-07 02:00:00 21.8 3 Noroeste 15 Oeste 0 -- -- 49
2017-08-07 01:00:00 24.6 7 Oeste 13 Oeste 0 -- -- 44
2017-08-07 00:00:00 25.6 2 Sudoeste 9 Noroeste 0 -- -- 35
2017-08-06 23:00:00 26.8 3 Norte 6 Noroeste 0 -- -- 31
2017-08-06 22:00:00 30.4 3 Noroeste 17 Noroeste 0 -- -- 26
2017-08-06 21:00:00 34.3 10 Oeste 26 Oeste 0 -- -- 22
2017-08-06 20:00:00 36 13 Oeste 28 Noroeste 0 -- -- 19
2017-08-06 19:00:00 36.6 16 Oeste 31 Oeste 0 -- -- 21
2017-08-06 18:00:00 36.4 15 Sudoeste 28 Sudoeste 0 -- -- 23
2017-08-06 17:00:00 35.9 11 Sur 22 Sudoeste 0 -- -- 29
2017-08-06 16:00:00 35.1 6 Sur 21 Sur 0 -- -- 29
2017-08-06 15:00:00 33.3 9 Sudoeste 17 Oeste 0 -- -- 32
2017-08-06 14:00:00 31.4 10 Sudoeste 18 Oeste 0 -- -- 38
2017-08-06 13:00:00 29.6 7 Sudoeste 17 Sudoeste 0 -- -- 42
2017-08-06 12:00:00 27.4 4 Sudoeste 10 Sur 0 -- -- 48
2017-08-06 11:00:00 23.6 4 Oeste 9 Sudoeste 0 -- -- 58
2017-08-06 10:00:00 20.8 4 Sudoeste 9 Sur 0 -- -- 67
2017-08-06 09:00:00 18.7 4 Sur 7 Sudoeste 0 -- -- 73
2017-08-06 08:00:00 16.5 0 Calma 8 Sudoeste 0 -- -- 76
2017-08-06 07:00:00 16.2 0 Calma 4 Sur 0 -- -- 75
2017-08-06 06:00:00 16.6 0 Calma -- -- 0 -- -- 72
2017-08-06 05:00:00 17.2 0 Calma -- -- 0 -- -- 69
2017-08-06 04:00:00 17.8 0 Calma 4 Este 0 -- -- 66
2017-08-06 03:00:00 18.6 0 Calma 3 Norte 0 -- -- 61
2017-08-06 02:00:00 20.4 0 Calma 5 Sudoeste 0 -- -- 56
2017-08-06 01:00:00 23.3 0 Calma 12 Oeste 0 -- -- 50
2017-08-06 00:00:00 25.7 6 Noroeste 16 Oeste 0 -- -- 46
2017-08-05 23:00:00 28 3 Sudoeste 15 Oeste 0 -- -- 41
2017-08-05 22:00:00 30.2 8 Noroeste 27 Oeste 0 -- -- 37
2017-08-05 21:00:00 33.4 15 Oeste 32 Noroeste 0 -- -- 30
2017-08-05 20:00:00 36.3 17 Oeste 30 Oeste 0 -- -- 22
2017-08-05 19:00:00 37.6 15 Oeste 33 Noroeste 0 -- -- 20
2017-08-05 18:00:00 38.1 15 Oeste 31 Oeste 0 -- -- 20
2017-08-05 17:00:00 38.3 17 Oeste 32 Oeste 0 -- -- 23
2017-08-05 16:00:00 38 15 Oeste 34 Oeste 0 -- -- 22
2017-08-05 15:00:00 37.7 16 Oeste 29 Oeste 0 -- -- 23
2017-08-05 14:00:00 36.1 9 Oeste 28 Sudoeste 0 -- -- 31
2017-08-05 13:00:00 33.8 8 Oeste 15 Sur 0 -- -- 38
2017-08-05 12:00:00 30.9 7 Sudoeste 17 Sudoeste 0 -- -- 45
2017-08-05 11:00:00 27.9 5 Sudoeste 11 Sudoeste 0 -- -- 52
2017-08-05 10:00:00 24.8 4 Oeste 9 Oeste 0 -- -- 60
2017-08-05 09:00:00 22.2 4 Sudoeste 6 Sur 0 -- -- 67
2017-08-05 08:00:00 19.3 0 Calma 3 Sur 0 -- -- 72
2017-08-05 07:00:00 19.8 2 Sudeste 3 Sudeste 0 -- -- 67
2017-08-05 06:00:00 20.9 0 Calma 4 Nordeste 0 -- -- 61
2017-08-05 05:00:00 22 0 Calma -- -- 0 -- -- 55
2017-08-05 04:00:00 23.3 0 Calma -- -- 0 -- -- 49
2017-08-05 03:00:00 25.1 0 Calma 8 Oeste 0 -- -- 44
2017-08-05 02:00:00 27.6 6 Noroeste 11 Norte 0 -- -- 40
2017-08-05 01:00:00 29.5 8 Noroeste 15 Oeste 0 -- -- 38
2017-08-05 00:00:00 30.6 8 Noroeste 15 Noroeste 0 -- -- 39
2017-08-04 23:00:00 32.4 7 Oeste 13 Noroeste 0 -- -- 38
2017-08-04 22:00:00 34.6 5 Noroeste 26 Noroeste 0 -- -- 35
2017-08-04 21:00:00 37.7 15 Noroeste 28 Noroeste 0 -- -- 29
2017-08-04 20:00:00 40.2 12 Noroeste 23 Norte 0 -- -- 23
2017-08-04 19:00:00 41 8 Noroeste 23 Noroeste 0 -- -- 23
2017-08-04 18:00:00 41 10 Noroeste 26 Noroeste 0 -- -- 23
2017-08-04 17:00:00 40.7 11 Noroeste 23 Oeste 0 -- -- 23
2017-08-04 16:00:00 40 8 Norte 22 Nordeste 0 -- -- 25
2017-08-04 15:00:00 38.7 10 Nordeste 21 Norte 0 -- -- 26
2017-08-04 14:00:00 37.5 8 Nordeste 22 Noroeste 0 -- -- 29
2017-08-04 13:00:00 36.1 8 Norte 20 Norte 0 -- -- 31
2017-08-04 12:00:00 34 7 Nordeste 18 Norte 0 -- -- 36
2017-08-04 11:00:00 31.1 6 Norte 17 Norte 0 -- -- 42
2017-08-04 10:00:00 28.2 10 Norte 15 Norte 0 -- -- 49
2017-08-04 09:00:00 26 4 Oeste 8 Noroeste 0 -- -- 54
2017-08-04 08:00:00 24.6 0 Calma 17 Noroeste 0 -- -- 56
2017-08-04 07:00:00 24.9 9 Norte 16 Norte 0 -- -- 56
2017-08-04 06:00:00 25.2 9 Noroeste 22 Noroeste 0 -- -- 54
2017-08-04 05:00:00 25.2 7 Noroeste 15 Noroeste 0 -- -- 55
2017-08-04 04:00:00 25.5 8 Noroeste 17 Oeste 0 -- -- 54
2017-08-04 03:00:00 26.2 8 Noroeste 20 Oeste 0 -- -- 52
2017-08-04 02:00:00 27.1 6 Noroeste 20 Noroeste 0 -- -- 49
2017-08-04 01:00:00 28.3 10 Noroeste 21 Noroeste 0 -- -- 47
2017-08-04 00:00:00 29.9 8 Noroeste 22 Norte 0 -- -- 44
2017-08-03 23:00:00 31.2 12 Norte 24 Noroeste 0 -- -- 40
2017-08-03 22:00:00 33.1 9 Norte 30 Norte 0 -- -- 36
2017-08-03 21:00:00 35.9 12 Norte 32 Norte 0 -- -- 31
2017-08-03 20:00:00 37.9 9 Norte 25 Norte 0 -- -- 28
2017-08-03 19:00:00 38 10 Noroeste 31 Norte 0 -- -- 28
2017-08-03 18:00:00 38 10 Norte 25 Noroeste 0 -- -- 26
2017-08-03 17:00:00 37.7 10 Noroeste 23 Oeste 0 -- -- 24
2017-08-03 16:00:00 37 11 Noroeste 25 Noroeste 0 -- -- 21
2017-08-03 15:00:00 36.1 12 Norte 22 Nordeste 0 -- -- 21
2017-08-03 14:00:00 34.8 8 Nordeste 21 Norte 0 -- -- 23
2017-08-03 13:00:00 32.7 4 Norte 19 Norte 0 -- -- 26
2017-08-03 12:00:00 29.5 6 Oeste 13 Noroeste 0 -- -- 32
2017-08-03 11:00:00 24.4 5 Noroeste 9 Noroeste 0 -- -- 40
2017-08-03 10:00:00 19.6 2 Noroeste 5 Oeste 0 -- -- 57
2017-08-03 09:00:00 16.3 0 Calma 0 Calma 0 -- -- 69
2017-08-03 08:00:00 13.6 0 Calma 3 Noroeste 0 -- -- 75
2017-08-03 07:00:00 14.1 0 Calma 5 Noroeste 0 -- -- 73
2017-08-03 06:00:00 14.7 0 Calma -- -- 0 -- -- 67
2017-08-03 05:00:00 15.5 0 Calma -- -- 0 -- -- 63
2017-08-03 04:00:00 16.7 0 Calma 5 Sudeste -- -- -- 56
2017-08-03 03:00:00 17.6 4 Este 6 Este 0 -- -- 49
2017-08-03 02:00:00 19.2 2 Sudeste 4 Este 0 -- -- 45
2017-08-03 01:00:00 21.1 4 Noroeste 5 Noroeste 0 -- -- 42
2017-08-03 00:00:00 24.2 4 Noroeste 8 Noroeste 0 -- -- 38
2017-08-02 23:00:00 27.5 5 Noroeste 19 Noroeste 0 -- -- 33
2017-08-02 22:00:00 30.3 9 Noroeste 20 Oeste 0 -- -- 25
2017-08-02 21:00:00 33 12 Oeste 24 Oeste 0 -- -- 20
2017-08-02 20:00:00 34.9 12 Oeste 20 Sudoeste 0 -- -- 19
2017-08-02 19:00:00 35.3 8 Oeste 24 Sudoeste 0 -- -- 17
2017-08-02 18:00:00 34.7 11 Sudoeste 25 Sudoeste 0 -- -- 18
2017-08-02 17:00:00 34.4 9 Sudoeste 22 Sudoeste 0 -- -- 18
2017-08-02 16:00:00 33.7 12 Sudoeste 24 Sur 0 -- -- 20
2017-08-02 15:00:00 32.8 7 Oeste 21 Sudoeste 0 -- -- 22
2017-08-02 14:00:00 31 8 Sudoeste 16 Oeste 0 -- -- 26
2017-08-02 13:00:00 28.7 6 Sudoeste 14 Sudoeste 0 -- -- 31
2017-08-02 12:00:00 25.8 5 Oeste 12 Oeste 0 -- -- 37
2017-08-02 11:00:00 21.8 3 Oeste 6 Sudoeste 0 -- -- 46
2017-08-02 10:00:00 17.9 2 Oeste 6 Oeste 0 -- -- 60
2017-08-02 09:00:00 15.3 3 Noroeste 6 Oeste 0 -- -- 67
2017-08-02 08:00:00 12.4 0 Calma 6 Nordeste 0 -- -- 73
2017-08-02 07:00:00 12.4 4 Nordeste 5 Nordeste 0 -- -- 72
2017-08-02 06:00:00 12.9 0 Calma -- -- 0 -- -- 68
2017-08-02 05:00:00 13.8 0 Calma 0 Calma 0 -- -- 65
2017-08-02 04:00:00 14.9 0 Calma 3 Nordeste 0 -- -- 61
2017-08-02 03:00:00 16.1 0 Calma 3 Este 0 -- -- 58
2017-08-02 02:00:00 17.8 2 Este 4 Nordeste 0 -- -- 52
2017-08-02 01:00:00 20 0 Calma 12 Noroeste 0 -- -- 48
2017-08-02 00:00:00 22 7 Noroeste 17 Oeste 0 -- -- 44
2017-08-01 23:00:00 23.7 10 Oeste 26 Oeste 0 -- -- 40
2017-08-01 22:00:00 26.1 12 Noroeste 31 Oeste 0 -- -- 35
2017-08-01 21:00:00 28.7 14 Noroeste 32 Oeste 0 -- -- 28
2017-08-01 20:00:00 31 12 Noroeste 29 Oeste 0 -- -- 25
2017-08-01 19:00:00 32 11 Oeste 27 Noroeste 0 -- -- 24
2017-08-01 18:00:00 32.1 13 Noroeste 28 Noroeste 0 -- -- 22
2017-08-01 17:00:00 32.1 10 Norte 21 Norte 0 -- -- 24
2017-08-01 16:00:00 31.2 8 Norte 19 Norte 0 -- -- 26
2017-08-01 15:00:00 29.7 8 Noroeste 23 Noroeste 0 -- -- 28
2017-08-01 14:00:00 28.4 12 Oeste 24 Noroeste 0 -- -- 30
2017-08-01 13:00:00 26.7 8 Noroeste 21 Oeste 0 -- -- 36
2017-08-01 12:00:00 24.4 5 Norte 16 Norte 0 -- -- 41
2017-08-01 11:00:00 21.6 7 Noroeste 16 Oeste 0 -- -- 47
2017-08-01 10:00:00 18.3 6 Sudeste 11 Sudeste 0 -- -- 55
2017-08-01 09:00:00 15.2 2 Noroeste 6 Noroeste 0 -- -- 66
2017-08-01 08:00:00 13.2 0 Calma -- -- 0 -- -- 70
2017-08-01 07:00:00 13.9 0 Calma -- -- 0 -- -- 65
2017-08-01 06:00:00 14.8 0 Calma -- -- 0 -- -- 63
2017-08-01 05:00:00 15.8 0 Calma -- -- 0 -- -- 60
2017-08-01 04:00:00 16.6 0 Calma -- -- 0 -- -- 61
2017-08-01 03:00:00 18.1 0 Calma 5 Noroeste 0 -- -- 59
2017-08-01 02:00:00 19.7 3 Noroeste 9 Noroeste 0 -- -- 53
2017-08-01 01:00:00 20.5 3 Noroeste 7 Noroeste 0 -- -- 51
2017-08-01 00:00:00 21.6 0 Calma 18 Noroeste 0 -- -- 48
2017-07-31 23:00:00 22.2 8 Noroeste 17 Noroeste 0 -- -- 46
2017-07-31 22:00:00 22.3 7 Noroeste 18 Noroeste 0 -- -- 45
2017-07-31 21:00:00 22.3 11 Norte 29 Norte 0 -- -- 46
2017-07-31 20:00:00 24.7 8 Noroeste 30 Oeste 0 -- -- 39
2017-07-31 19:00:00 26.6 18 Oeste 40 Noroeste 0 -- -- 35
2017-07-31 18:00:00 30.9 21 Noroeste 34 Oeste 0 -- -- 29
2017-07-31 17:00:00 32.4 12 Oeste 26 Sudoeste 0 -- -- 22
2017-07-31 16:00:00 31 9 Sudoeste 24 Oeste 0 -- -- 25
2017-07-31 15:00:00 30.2 10 Sudoeste 26 Sudoeste 0 -- -- 29
2017-07-31 14:00:00 28.5 15 Sudoeste 23 Sudoeste 0 -- -- 33
2017-07-31 13:00:00 27 8 Sudoeste 15 Sudoeste 0 -- -- 37
2017-07-31 12:00:00 24.4 8 Oeste 22 Sudoeste 0 -- -- 43
2017-07-31 11:00:00 21.6 5 Norte 13 Oeste 0 -- -- 51
2017-07-31 10:00:00 18.5 4 Oeste 8 Oeste 0 -- -- 63
2017-07-31 09:00:00 15.5 0 Calma 7 Este 0 -- -- 76
2017-07-31 08:00:00 12.6 0 Calma 6 Nordeste 0 -- -- 77
2017-07-31 07:00:00 12.9 2 Este 5 Sudeste 0 -- -- 78
2017-07-31 06:00:00 13.8 0 Calma 4 Nordeste 0 -- -- 73
2017-07-31 05:00:00 15 0 Calma 6 Sudeste 0 -- -- 69
2017-07-31 04:00:00 16.5 3 Sudeste 5 Oeste 0 -- -- 58
2017-07-31 03:00:00 18.1 0 Calma 9 Noroeste 0 -- -- 57
2017-07-31 02:00:00 19.9 4 Oeste 9 Oeste 0 -- -- 52
2017-07-31 01:00:00 22.3 3 Sudoeste 19 Oeste 0 -- -- 44
2017-07-31 00:00:00 24.2 6 Noroeste 20 Noroeste 0 -- -- 40
2017-07-30 23:00:00 26.2 7 Noroeste 17 Noroeste 0 -- -- 35
2017-07-30 22:00:00 28.6 8 Noroeste 25 Oeste 0 -- -- 33
2017-07-30 21:00:00 31.4 14 Noroeste 32 Oeste 0 -- -- 29
2017-07-30 20:00:00 33.8 14 Noroeste 30 Oeste 0 -- -- 24
2017-07-30 19:00:00 35.3 13 Noroeste 29 Oeste 0 -- -- 24
2017-07-30 18:00:00 36.1 14 Noroeste 28 Oeste 0 -- -- 22
2017-07-30 17:00:00 36 17 Noroeste 38 Oeste 0 -- -- 21
2017-07-30 16:00:00 35.8 17 Oeste 30 Sudoeste 0 -- -- 22
2017-07-30 15:00:00 34.8 9 Sudoeste 20 Sudoeste 0 -- -- 28
2017-07-30 14:00:00 32.4 7 Sudoeste 19 Oeste 0 -- -- 31
2017-07-30 13:00:00 30.1 8 Sudoeste 22 Sudoeste 0 -- -- 37
2017-07-30 12:00:00 28 8 Oeste 14 Oeste 0 -- -- 43
2017-07-30 11:00:00 25.2 6 Oeste 11 Oeste 0 -- -- 50
2017-07-30 10:00:00 22 3 Oeste 6 Sudoeste 0 -- -- 65
2017-07-30 09:00:00 19.9 0 Calma -- -- 0 -- -- 72
2017-07-30 08:00:00 17.9 0 Calma 5 Oeste 0 -- -- 74
2017-07-30 07:00:00 18.5 3 Sudeste 6 Sudeste 0 -- -- 74
2017-07-30 06:00:00 19.2 0 Calma 5 Nordeste 0 -- -- 71
2017-07-30 05:00:00 20.6 4 Sudeste 6 Sur 0 -- -- 63
2017-07-30 04:00:00 21.1 2 Sudoeste 6 Oeste 0 -- -- 60
2017-07-30 03:00:00 21.5 0 Calma 7 Noroeste 0 -- -- 51
2017-07-30 02:00:00 23.5 6 Noroeste 8 Noroeste 0 -- -- 47
2017-07-30 01:00:00 25 6 Noroeste 9 Noroeste 0 -- -- 43
2017-07-30 00:00:00 27.8 5 Noroeste 15 Noroeste 0 -- -- 42
2017-07-29 23:00:00 30.2 9 Noroeste 28 Noroeste 0 -- -- 45
2017-07-29 22:00:00 32.7 9 Noroeste 19 Noroeste 0 -- -- 31
2017-07-29 21:00:00 35.2 13 Oeste 28 Noroeste 0 -- -- 27
2017-07-29 20:00:00 37.5 12 Noroeste 24 Oeste 0 -- -- 22
2017-07-29 19:00:00 38.2 13 Oeste 26 Oeste 0 -- -- 22
2017-07-29 18:00:00 38.2 13 Oeste 33 Oeste 0 -- -- 22
2017-07-29 17:00:00 37.6 13 Oeste 31 Noroeste 0 -- -- 22
2017-07-29 16:00:00 37.1 13 Oeste 28 Oeste 0 -- -- 26
2017-07-29 15:00:00 35.9 9 Oeste 22 Oeste 0 -- -- 29
2017-07-29 14:00:00 34.6 9 Oeste 19 Noroeste 0 -- -- 31
2017-07-29 13:00:00 33.3 6 Noroeste 17 Noroeste 0 -- -- 34
2017-07-29 12:00:00 31.2 7 Oeste 18 Norte 0 -- -- 38
2017-07-29 11:00:00 28.2 11 Norte 20 Norte 0 -- -- 44
2017-07-29 10:00:00 23.8 0 Calma -- -- 0 -- -- 60
2017-07-29 09:00:00 21.1 0 Calma -- -- 0 -- -- 70
2017-07-29 08:00:00 18.9 0 Calma -- -- 0 -- -- 71
2017-07-29 07:00:00 18.7 0 Calma -- -- 0 -- -- 69
2017-07-29 06:00:00 19 0 Calma -- -- 0 -- -- 68
2017-07-29 05:00:00 19.7 0 Calma -- -- 0 -- -- 64
2017-07-29 04:00:00 20.4 0 Calma -- -- 0 -- -- 61
2017-07-29 03:00:00 21.5 0 Calma -- -- 0 -- -- 56
2017-07-29 02:00:00 23.1 0 Calma 6 Noroeste 0 -- -- 52
2017-07-29 01:00:00 25.7 4 Oeste 8 Oeste 0 -- -- 44
2017-07-29 00:00:00 27.7 5 Noroeste 11 Noroeste 0 -- -- 39
2017-07-28 23:00:00 29.8 5 Noroeste 17 Noroeste 0 -- -- 36
2017-07-28 22:00:00 32.1 7 Noroeste 26 Noroeste 0 -- -- 32
2017-07-28 21:00:00 34.8 16 Noroeste 29 Oeste 0 -- -- 25
2017-07-28 20:00:00 37.2 15 Noroeste 31 Noroeste 0 -- -- 21
2017-07-28 19:00:00 38.2 15 Oeste 31 Oeste 0 -- -- 19
2017-07-28 18:00:00 38.6 15 Oeste 32 Oeste 0 -- -- 17
2017-07-28 17:00:00 38.6 16 Oeste 29 Oeste 0 -- -- 17
2017-07-28 16:00:00 37.5 9 Noroeste 30 Sudoeste 0 -- -- 20
2017-07-28 15:00:00 36.6 8 Sudoeste 20 Noroeste 0 -- -- 24
2017-07-28 14:00:00 35 8 Noroeste 24 Norte 0 -- -- 23
2017-07-28 13:00:00 33.4 6 Noroeste 17 Norte 0 -- -- 28
2017-07-28 12:00:00 31 5 Noroeste 18 Nordeste 0 -- -- 31
2017-07-28 11:00:00 27.9 9 Norte 18 Noroeste 0 -- -- 36
2017-07-28 10:00:00 22.4 4 Oeste 9 Sudoeste 0 -- -- 63
2017-07-28 09:00:00 19.2 0 Calma 4 Noroeste 0 -- -- 77
2017-07-28 08:00:00 16.2 0 Calma 5 Norte 0 -- -- 82
2017-07-28 07:00:00 16.3 0 Calma 4 Este 0 -- -- 80
2017-07-28 06:00:00 16.9 0 Calma -- -- 0 -- -- 76
2017-07-28 05:00:00 17.7 0 Calma 0 Calma 0 -- -- 73
2017-07-28 04:00:00 18.7 0 Calma -- -- 0 -- -- 68
2017-07-28 03:00:00 19.9 0 Calma 3 Oeste 0 -- -- 60
2017-07-28 02:00:00 21.8 0 Calma 11 Oeste 0 -- -- 55
2017-07-28 01:00:00 24.3 4 Oeste 8 Oeste 0 -- -- 51
2017-07-28 00:00:00 27.3 5 Oeste 15 Noroeste 0 -- -- 42
2017-07-27 23:00:00 29.5 6 Noroeste 13 Oeste 0 -- -- 38
2017-07-27 22:00:00 31.3 7 Noroeste 21 Oeste 0 -- -- 33
2017-07-27 21:00:00 34.4 16 Noroeste 33 Noroeste 0 -- -- 25
2017-07-27 20:00:00 37 14 Oeste 35 Oeste 0 -- -- 19
2017-07-27 19:00:00 37.9 13 Noroeste 30 Oeste 0 -- -- 17
2017-07-27 18:00:00 38 16 Sudoeste 31 Oeste 0 -- -- 18
2017-07-27 17:00:00 37.8 12 Oeste 28 Sudoeste 0 -- -- 20
2017-07-27 16:00:00 36.8 12 Oeste 26 Oeste 0 -- -- 21
2017-07-27 15:00:00 35.6 12 Oeste 27 Sudoeste 0 -- -- 25
2017-07-27 14:00:00 34.2 13 Sudoeste 21 Sudoeste 0 -- -- 27
2017-07-27 13:00:00 32.8 10 Sudoeste 20 Sudoeste 0 -- -- 28
2017-07-27 12:00:00 30.3 7 Oeste 13 Oeste 0 -- -- 32
2017-07-27 11:00:00 26.5 6 Sudoeste 11 Sudoeste 0 -- -- 37
2017-07-27 10:00:00 23.6 3 Oeste 6 Sudoeste 0 -- -- 42
2017-07-27 09:00:00 21.7 0 Calma -- -- 0 -- -- 45
2017-07-27 08:00:00 19.7 0 Calma -- -- 0 -- -- 48
2017-07-27 07:00:00 20.6 0 Calma -- -- 0 -- -- 48
2017-07-27 06:00:00 21.1 0 Calma -- -- 0 -- -- 48
2017-07-27 05:00:00 21.9 0 Calma -- -- 0 -- -- 47
2017-07-27 04:00:00 23.4 0 Calma -- -- 0 -- -- 43
2017-07-27 03:00:00 24.2 0 Calma -- -- 0 -- -- 42
2017-07-27 02:00:00 26.1 0 Calma 7 Oeste 0 -- -- 39
2017-07-27 01:00:00 27.2 5 Noroeste 9 Noroeste 0 -- -- 39
2017-07-27 00:00:00 28.1 4 Noroeste 8 Oeste 0 -- -- 37
2017-07-26 23:00:00 31 3 Noroeste 18 Noroeste 0 -- -- 33
2017-07-26 22:00:00 33.5 10 Noroeste 25 Noroeste 0 -- -- 30
2017-07-26 21:00:00 37.6 5 Nordeste 11 Norte 0 -- -- 20
2017-07-26 20:00:00 38.4 6 Oeste 21 Norte 0 -- -- 20
2017-07-26 19:00:00 38.4 5 Sudeste 24 Norte 0 -- -- 19
2017-07-26 18:00:00 38.8 10 Noroeste 25 Norte 0 -- -- 19
2017-07-26 17:00:00 38 10 Noroeste 22 Norte 0 -- -- 19
2017-07-26 16:00:00 37.8 7 Nordeste 22 Nordeste 0 -- -- 20
2017-07-26 15:00:00 36.8 10 Nordeste 31 Este 0 -- -- 20
2017-07-26 14:00:00 36 10 Este 22 Este 0 -- -- 21
2017-07-26 13:00:00 34.7 8 Este 20 Sudeste 0 -- -- 22
2017-07-26 12:00:00 33.5 9 Este 22 Este 0 -- -- 23
2017-07-26 11:00:00 31.4 10 Este 26 Este 0 -- -- 25
2017-07-26 10:00:00 29.4 10 Este 20 Nordeste 0 -- -- 28
2017-07-26 09:00:00 26.4 9 Nordeste 17 Este 0 -- -- 31
2017-07-26 08:00:00 23.4 8 Nordeste 18 Nordeste 0 -- -- 36
2017-07-26 07:00:00 23.7 3 Sudoeste 17 Norte 0 -- -- 35
2017-07-26 06:00:00 24.6 7 Norte 17 Norte 0 -- -- 34
2017-07-26 05:00:00 25 8 Norte 19 Norte 0 -- -- 33
2017-07-26 04:00:00 24.7 3 Oeste 14 Oeste 0 -- -- 32
2017-07-26 03:00:00 28 6 Noroeste 32 Nordeste 0 -- -- 28
2017-07-26 02:00:00 29 15 Nordeste 28 Norte 0 -- -- 27
2017-07-26 01:00:00 29.5 12 Nordeste 33 Norte 0 -- -- 26
2017-07-26 00:00:00 30.4 15 Nordeste 30 Nordeste 0 -- -- 25
2017-07-25 23:00:00 31.6 15 Nordeste 27 Norte 0 -- -- 24
2017-07-25 22:00:00 33.1 12 Norte 28 Nordeste 0 -- -- 22
2017-07-25 21:00:00 35.2 14 Norte 27 Norte 0 -- -- 20
2017-07-25 20:00:00 36.6 10 Norte 27 Noroeste 0 -- -- 18
2017-07-25 19:00:00 37 14 Norte 30 Nordeste 0 -- -- 20
2017-07-25 18:00:00 37.1 17 Nordeste 31 Nordeste 0 -- -- 21
2017-07-25 17:00:00 36.8 14 Norte 28 Nordeste 0 -- -- 22
2017-07-25 16:00:00 36.4 10 Norte 26 Norte 0 -- -- 22
2017-07-25 15:00:00 35.6 15 Nordeste 28 Norte 0 -- -- 23
2017-07-25 14:00:00 34.8 8 Norte 34 Nordeste 0 -- -- 24
2017-07-25 13:00:00 34 9 Este 23 Este 0 -- -- 25
2017-07-25 12:00:00 32.2 11 Este 24 Este 0 -- -- 29
2017-07-25 11:00:00 30.1 13 Nordeste 26 Este 0 -- -- 31
2017-07-25 10:00:00 27.2 10 Nordeste 18 Norte 0 -- -- 36
2017-07-25 09:00:00 24.8 7 Nordeste 18 Nordeste 0 -- -- 40
2017-07-25 08:00:00 23 8 Norte 24 Norte 0 -- -- 45
2017-07-25 07:00:00 23.1 15 Norte 27 Norte 0 -- -- 45
2017-07-25 06:00:00 22.9 9 Norte 17 Norte 0 -- -- 47
2017-07-25 05:00:00 23.5 8 Noroeste 15 Noroeste 0 -- -- 47
2017-07-25 04:00:00 24.4 10 Noroeste 19 Noroeste 0 -- -- 46
2017-07-25 03:00:00 24.8 9 Oeste 15 Oeste 0 -- -- 47
2017-07-25 02:00:00 24.4 4 Noroeste 10 Noroeste 0 -- -- 51
2017-07-25 01:00:00 25.8 4 Noroeste 8 Noroeste 0 -- -- 47
2017-07-25 00:00:00 27.7 4 Noroeste 10 Norte 0 -- -- 38
2017-07-24 23:00:00 29.5 4 Norte 10 Noroeste 0 -- -- 39
2017-07-24 22:00:00 32.2 5 Norte 24 Norte 0 -- -- 22
2017-07-24 21:00:00 34.3 14 Norte 35 Norte 0 -- -- 19
2017-07-24 20:00:00 35.4 14 Norte 32 Noroeste 0 -- -- 20
2017-07-24 19:00:00 35.9 18 Norte 35 Norte 0 -- -- 21
2017-07-24 18:00:00 36 14 Norte 35 Noroeste 0 -- -- 22
2017-07-24 17:00:00 35.9 14 Norte 31 Noroeste 0 -- -- 23
2017-07-24 16:00:00 35.1 15 Norte 36 Norte 0 -- -- 24
2017-07-24 15:00:00 34.2 14 Norte 34 Norte 0 -- -- 26
2017-07-24 14:00:00 32.5 17 Norte 31 Norte 0 -- -- 29
2017-07-24 13:00:00 30.2 14 Norte 27 Norte 0 -- -- 35
2017-07-24 12:00:00 28.3 11 Noroeste 29 Norte 0 -- -- 41
2017-07-24 11:00:00 26.6 10 Norte 22 Norte 0 -- -- 47
2017-07-24 10:00:00 24.4 14 Norte 23 Norte 0 -- -- 54
2017-07-24 09:00:00 22.8 9 Norte 17 Norte 0 -- -- 60
2017-07-24 08:00:00 21.6 8 Noroeste 20 Noroeste 0 -- -- 64
2017-07-24 07:00:00 21.6 5 Noroeste 14 Noroeste 0 -- -- 62
2017-07-24 06:00:00 22 6 Oeste 14 Oeste 0 -- -- 60
2017-07-24 05:00:00 22.8 6 Noroeste 13 Noroeste 0 -- -- 59
2017-07-24 04:00:00 23.4 5 Noroeste 18 Noroeste 0 -- -- 57
2017-07-24 03:00:00 24.2 4 Oeste 9 Noroeste 0 -- -- 55
2017-07-24 02:00:00 24.9 3 Oeste 18 Noroeste 0 -- -- 51
2017-07-24 01:00:00 26.3 6 Noroeste 21 Noroeste 0 -- -- 47
2017-07-24 00:00:00 27.6 8 Noroeste 23 Noroeste 0 -- -- 40
2017-07-23 23:00:00 29.3 10 Noroeste 31 Noroeste 0 -- -- 37
2017-07-23 22:00:00 31.5 12 Noroeste 26 Noroeste 0 -- -- 32
2017-07-23 21:00:00 34.6 15 Norte 28 Norte 0 -- -- 20
2017-07-23 20:00:00 35.9 8 Norte 23 Noroeste 0 -- -- 20
2017-07-23 19:00:00 35.8 10 Norte 30 Norte 0 -- -- 22
2017-07-23 18:00:00 35.7 14 Norte 30 Norte 0 -- -- 23
2017-07-23 17:00:00 35.7 10 Norte 36 Noroeste 0 -- -- 22
2017-07-23 16:00:00 34.8 8 Noroeste 35 Oeste 0 -- -- 25
2017-07-23 15:00:00 34.1 11 Sudeste 30 Sudeste 0 -- -- 26
2017-07-23 14:00:00 32.5 9 Oeste 21 Sudoeste 0 -- -- 31
2017-07-23 13:00:00 30.9 9 Sur 19 Sudoeste 0 -- -- 35
2017-07-23 12:00:00 28.5 5 Noroeste 14 Sur 0 -- -- 40
2017-07-23 11:00:00 24.9 4 Oeste 12 Oeste 0 -- -- 51
2017-07-23 10:00:00 21.1 4 Oeste 8 Oeste 0 -- -- 61
2017-07-23 09:00:00 18.2 2 Noroeste 7 Oeste 0 -- -- 69
2017-07-23 08:00:00 15.8 0 Calma -- -- 0 -- -- 74
2017-07-23 07:00:00 15.6 0 Calma -- -- 0 -- -- 73
2017-07-23 06:00:00 16.3 0 Calma -- -- 0 -- -- 71
2017-07-23 05:00:00 17.1 0 Calma -- -- 0 -- -- 67
2017-07-23 04:00:00 17.8 0 Calma -- -- 0 -- -- 67
2017-07-23 03:00:00 19.3 0 Calma 6 Noroeste 0 -- -- 62
2017-07-23 02:00:00 21.2 5 Oeste 10 Oeste 0 -- -- 58
2017-07-23 01:00:00 22.6 5 Oeste 12 Oeste 0 -- -- 54
2017-07-23 00:00:00 23.8 5 Noroeste 21 Oeste 0 -- -- 51
2017-07-22 23:00:00 25.6 10 Noroeste 23 Oeste 0 -- -- 46
2017-07-22 22:00:00 27.9 10 Oeste 26 Oeste 0 -- -- 42
2017-07-22 21:00:00 31.5 14 Oeste 24 Oeste 0 -- -- 32
2017-07-22 20:00:00 33.5 9 Noroeste 27 Oeste 0 -- -- 19
2017-07-22 19:00:00 33.4 11 Noroeste 25 Oeste 0 -- -- 19
2017-07-22 18:00:00 33.3 10 Sudoeste 22 Oeste 0 -- -- 21
2017-07-22 17:00:00 32.5 9 Noroeste 25 Oeste 0 -- -- 23
2017-07-22 16:00:00 31.7 11 Noroeste 26 Oeste 0 -- -- 25
2017-07-22 15:00:00 30.4 12 Sudoeste 22 Sudoeste 0 -- -- 30
2017-07-22 14:00:00 29.3 10 Sudoeste 21 Sudoeste 0 -- -- 32
2017-07-22 13:00:00 27.8 7 Oeste 19 Sudoeste 0 -- -- 36
2017-07-22 12:00:00 25.5 10 Sudoeste 18 Sudoeste 0 -- -- 40
2017-07-22 11:00:00 22.9 3 Noroeste 9 Oeste 0 -- -- 47
2017-07-22 10:00:00 19.3 3 Oeste 7 Sudoeste 0 -- -- 61
2017-07-22 09:00:00 16.7 0 Calma 4 Sudeste 0 -- -- 72
2017-07-22 08:00:00 13.5 0 Calma 4 Sudeste 0 -- -- 74
2017-07-22 07:00:00 13.5 0 Calma 4 Sudeste 0 -- -- 71
2017-07-22 06:00:00 13.9 0 Calma 4 Este 0 -- -- 68
2017-07-22 05:00:00 14.7 3 Sudeste 4 Sudeste 0 -- -- 65
2017-07-22 04:00:00 15.8 0 Calma 5 Noroeste 0 -- -- 61
2017-07-22 03:00:00 16.9 3 Oeste 5 Oeste 0 -- -- 60
2017-07-22 02:00:00 18.4 0 Calma 9 Oeste 0 -- -- 54
2017-07-22 01:00:00 20.5 4 Oeste 11 Oeste 0 -- -- 49
2017-07-22 00:00:00 21.7 4 Oeste 15 Oeste 0 -- -- 45
2017-07-21 23:00:00 23.4 9 Noroeste 20 Noroeste 0 -- -- 42
2017-07-21 22:00:00 25.3 10 Noroeste 31 Noroeste 0 -- -- 38
2017-07-21 21:00:00 28.1 15 Oeste 33 Oeste 0 -- -- 33
2017-07-21 20:00:00 30.2 17 Oeste 33 Noroeste 0 -- -- 30
2017-07-21 19:00:00 31.1 15 Noroeste 31 Oeste 0 -- -- 25
2017-07-21 18:00:00 31.2 15 Oeste 39 Oeste 0 -- -- 27
2017-07-21 17:00:00 31 13 Oeste 30 Oeste 0 -- -- 32
2017-07-21 16:00:00 30 8 Noroeste 29 Oeste 0 -- -- 34
2017-07-21 15:00:00 28.9 8 Sur 25 Sudoeste 0 -- -- 36
2017-07-21 14:00:00 27.1 5 Sudoeste 23 Sudoeste 0 -- -- 41
2017-07-21 13:00:00 24.8 9 Sudoeste 18 Oeste 0 -- -- 47
2017-07-21 12:00:00 22.2 8 Sudoeste 15 Sudoeste 0 -- -- 52
2017-07-21 11:00:00 20 8 Sudoeste 15 Sudoeste 0 -- -- 56
2017-07-21 10:00:00 17.8 3 Sudeste 8 Sur 0 -- -- 65
2017-07-21 09:00:00 15 4 Sur 5 Sur 0 -- -- 71
2017-07-21 08:00:00 12 0 Calma -- -- 0 -- -- 77
2017-07-21 07:00:00 11.7 0 Calma 3 Este 0 -- -- 75
2017-07-21 06:00:00 12.2 2 Sudeste 4 Este 0 -- -- 72
2017-07-21 05:00:00 12.6 0 Calma 4 Nordeste 0 -- -- 70
2017-07-21 04:00:00 13.5 0 Calma 3 Sudeste 0 -- -- 68
2017-07-21 03:00:00 15.5 0 Calma 7 Oeste 0 -- -- 63
2017-07-21 02:00:00 16.5 0 Calma 9 Oeste 0 -- -- 60
2017-07-21 01:00:00 18.4 2 Sudoeste 15 Oeste 0 -- -- 56
2017-07-21 00:00:00 19.4 7 Oeste 15 Noroeste 0 -- -- 54
2017-07-20 23:00:00 20.5 10 Oeste 25 Oeste 0 -- -- 53
2017-07-20 22:00:00 22.9 12 Noroeste 25 Norte 0 -- -- 49
2017-07-20 21:00:00 24.8 13 Noroeste 32 Oeste 0 -- -- 45
2017-07-20 20:00:00 27.9 17 Oeste 32 Oeste 0 -- -- 35
2017-07-20 19:00:00 29.3 14 Oeste 33 Oeste 0 -- -- 32
2017-07-20 18:00:00 30.6 15 Noroeste 31 Noroeste 0 -- -- 30
2017-07-20 17:00:00 30.8 11 Oeste 31 Noroeste 0 -- -- 33
2017-07-20 16:00:00 29.7 7 Noroeste 24 Oeste 0 -- -- 35
2017-07-20 15:00:00 28.8 6 Noroeste 22 Oeste 0 -- -- 36
2017-07-20 14:00:00 27.7 8 Norte 23 Oeste 0 -- -- 39
2017-07-20 13:00:00 26.2 9 Oeste 21 Oeste 0 -- -- 43
2017-07-20 12:00:00 24.4 8 Noroeste 19 Noroeste 0 -- -- 47
2017-07-20 11:00:00 22 8 Norte 17 Norte 0 -- -- 52
2017-07-20 10:00:00 19 3 Sudoeste 9 Sudoeste 0 -- -- 68
2017-07-20 09:00:00 16.7 3 Sudoeste 6 Sur 0 -- -- 78
2017-07-20 08:00:00 13.6 2 Sudeste 4 Sudeste 0 -- -- 82
2017-07-20 07:00:00 13.4 0 Calma 2 Este 0 -- -- 79
2017-07-20 06:00:00 14 0 Calma 2 Oeste 0 -- -- 77
2017-07-20 05:00:00 15.4 0 Calma 4 Noroeste 0 -- -- 73
2017-07-20 04:00:00 16.8 4 Noroeste 6 Noroeste 0 -- -- 69
2017-07-20 03:00:00 18.2 3 Noroeste 10 Oeste 0 -- -- 66
2017-07-20 02:00:00 19.3 4 Oeste 16 Noroeste 0 -- -- 65
2017-07-20 01:00:00 20.5 6 Noroeste 24 Noroeste 0 -- -- 63
2017-07-20 00:00:00 22 13 Noroeste 26 Noroeste 0 -- -- 60
2017-07-19 23:00:00 23.6 10 Noroeste 21 Oeste 0 -- -- 56
2017-07-19 22:00:00 25.4 12 Noroeste 27 Noroeste 0 -- -- 50
2017-07-19 21:00:00 27.9 13 Noroeste 29 Noroeste 0 -- -- 45
2017-07-19 20:00:00 29.6 13 Noroeste 29 Oeste 0 -- -- 40
2017-07-19 19:00:00 30.4 14 Noroeste 31 Oeste 0 -- -- 38
2017-07-19 18:00:00 30.1 17 Noroeste 32 Oeste 0 -- -- 37
2017-07-19 17:00:00 30.4 16 Noroeste 31 Oeste 0 -- -- 38
2017-07-19 16:00:00 30 15 Oeste 33 Oeste 0 -- -- 40
2017-07-19 15:00:00 29.4 18 Oeste 32 Oeste 0 -- -- 44
2017-07-19 14:00:00 28.7 9 Oeste 29 Oeste 0 -- -- 45
2017-07-19 13:00:00 27.2 9 Oeste 23 Oeste 0 -- -- 44
2017-07-19 12:00:00 24.6 8 Noroeste 17 Oeste 0 -- -- 51
2017-07-19 11:00:00 22.5 6 Noroeste 15 Oeste 0 -- -- 61
2017-07-19 10:00:00 20.6 7 Oeste 19 Noroeste 0 -- -- 67
2017-07-19 09:00:00 19.1 11 Oeste 21 Oeste 0 -- -- 72
2017-07-19 08:00:00 17.9 0 Calma 13 Oeste 0 -- -- 77
2017-07-19 07:00:00 18.1 4 Oeste 11 Oeste 0 -- -- 75
2017-07-19 06:00:00 17.9 0 Calma 5 Sudoeste 0 -- -- 75
2017-07-19 05:00:00 18.9 0 Calma 8 Oeste 0 -- -- 75
2017-07-19 04:00:00 19.6 2 Sudoeste 6 Oeste 0 -- -- 72
2017-07-19 03:00:00 19.8 0 Calma 17 Oeste 0 -- -- 74
2017-07-19 02:00:00 20.8 8 Oeste 16 Oeste 0 -- -- 70
2017-07-19 01:00:00 22 7 Oeste 24 Oeste 0 -- -- 66
2017-07-19 00:00:00 23.9 11 Noroeste 26 Oeste 0 -- -- 61